Time;durP1;ratioP1;P1;durP2;ratioP2;P2;SDS_P1;SDS_P2;PMS_P1;PMS_P2;Temp;Humidity;BMP_temperature;BMP_pressure;BME280_temperature;BME280_humidity;BME280_pressure;Samples;Min_cycle;Max_cycle;Signal;HPM_P1;HPM_P2
2020/11/29 00:00:23;;;;;;;35.15;16.1;;;;;;;1.02;89.86035;95458.22;;;;
2020/11/29 00:01:23;;;;;;;35.15;16.1;;;;;;;1.02;89.86035;95458.22;;;;
2020/11/29 00:02:24;;;;;;;40.5;17.5;;;;;;;0.95;90.25293;95451.93;;;;
2020/11/29 00:03:24;;;;;;;40.5;17.5;;;;;;;0.95;90.25293;95451.93;;;;
2020/11/29 00:04:25;;;;;;;40.5;17.5;;;;;;;0.95;90.25293;95451.93;;;;
2020/11/29 00:05:25;;;;;;;40.5;17.5;;;;;;;0.95;90.25293;95451.93;;;;
2020/11/29 00:06:26;;;;;;;40.5;17.5;;;;;;;0.95;90.25293;95451.93;;;;
2020/11/29 00:07:26;;;;;;;40.5;17.5;;;;;;;0.95;90.25293;95451.93;;;;
2020/11/29 00:08:27;;;;;;;40.5;17.5;;;;;;;0.95;90.25293;95451.93;;;;
2020/11/29 00:09:27;;;;;;;40.5;17.5;;;;;;;0.95;90.25293;95451.93;;;;
2020/11/29 00:10:28;;;;;;;40.5;17.5;;;;;;;0.95;90.25293;95451.93;;;;
2020/11/29 00:11:28;;;;;;;40.5;17.5;;;;;;;0.95;90.25293;95451.93;;;;
2020/11/29 00:12:29;;;;;;;40.5;17.5;;;;;;;0.95;90.25293;95451.93;;;;
2020/11/29 00:13:29;;;;;;;41.10001;17.2;;;;;;;0.99;90.25;95455.08;;;;
2020/11/29 00:14:30;;;;;;;41.10001;17.2;;;;;;;0.99;90.25;95455.08;;;;
2020/11/29 00:15:30;;;;;;;41.10001;17.2;;;;;;;0.99;90.25;95455.08;;;;
2020/11/29 00:16:31;;;;;;;41.10001;17.2;;;;;;;0.99;90.25;95455.08;;;;
2020/11/29 00:17:32;;;;;;;41.10001;17.2;;;;;;;0.99;90.25;95455.08;;;;
2020/11/29 00:18:32;;;;;;;41.10001;17.2;;;;;;;0.99;90.25;95455.08;;;;
2020/11/29 00:19:33;;;;;;;41.10001;17.2;;;;;;;0.99;90.25;95455.08;;;;
2020/11/29 00:20:33;;;;;;;41.10001;17.2;;;;;;;0.99;90.25;95455.08;;;;
2020/11/29 00:21:34;;;;;;;41.10001;17.2;;;;;;;0.99;90.25;95455.08;;;;
2020/11/29 00:22:34;;;;;;;41.10001;17.2;;;;;;;0.99;90.25;95455.08;;;;
2020/11/29 00:23:35;;;;;;;41.10001;17.2;;;;;;;0.99;90.25;95455.08;;;;
2020/11/29 00:24:35;;;;;;;40.05;17.05;;;;;;;0.97;90.51758;95448.58;;;;
2020/11/29 00:25:35;;;;;;;40.05;17.05;;;;;;;0.97;90.51758;95448.58;;;;
2020/11/29 00:26:36;;;;;;;40.05;17.05;;;;;;;0.97;90.51758;95448.58;;;;
2020/11/29 00:27:36;;;;;;;40.05;17.05;;;;;;;0.97;90.51758;95448.58;;;;
2020/11/29 00:28:37;;;;;;;40.05;17.05;;;;;;;0.97;90.51758;95448.58;;;;
2020/11/29 00:29:37;;;;;;;40.05;17.05;;;;;;;0.97;90.51758;95448.58;;;;
2020/11/29 00:30:38;;;;;;;40.05;17.05;;;;;;;0.97;90.51758;95448.58;;;;
2020/11/29 00:31:38;;;;;;;40.05;17.05;;;;;;;0.97;90.51758;95448.58;;;;
2020/11/29 00:32:39;;;;;;;40.05;17.05;;;;;;;0.97;90.51758;95448.58;;;;
2020/11/29 00:33:39;;;;;;;40.05;17.05;;;;;;;0.97;90.51758;95448.58;;;;
2020/11/29 00:34:40;;;;;;;31.45;14.5;;;;;;;0.99;90.44824;95451.09;;;;
2020/11/29 00:35:40;;;;;;;31.45;14.5;;;;;;;0.99;90.44824;95451.09;;;;
2020/11/29 00:36:41;;;;;;;31.45;14.5;;;;;;;0.99;90.44824;95451.09;;;;
2020/11/29 00:37:43;;;;;;;31.45;14.5;;;;;;;0.99;90.44824;95451.09;;;;
2020/11/29 00:38:43;;;;;;;31.45;14.5;;;;;;;0.99;90.44824;95451.09;;;;
2020/11/29 00:39:44;;;;;;;31.45;14.5;;;;;;;0.99;90.44824;95451.09;;;;
2020/11/29 00:40:44;;;;;;;31.45;14.5;;;;;;;0.99;90.44824;95451.09;;;;
2020/11/29 00:41:44;;;;;;;31.45;14.5;;;;;;;0.99;90.44824;95451.09;;;;
2020/11/29 00:42:45;;;;;;;31.45;14.5;;;;;;;0.99;90.44824;95451.09;;;;
2020/11/29 00:43:45;;;;;;;31.45;14.5;;;;;;;0.99;90.44824;95451.09;;;;
2020/11/29 00:44:46;;;;;;;31.45;14.5;;;;;;;0.99;90.44824;95451.09;;;;
2020/11/29 00:45:46;;;;;;;33.25;15.55;;;;;;;0.92;90.74512;95454.13;;;;
2020/11/29 00:46:47;;;;;;;33.25;15.55;;;;;;;0.92;90.74512;95454.13;;;;
2020/11/29 00:47:47;;;;;;;33.25;15.55;;;;;;;0.92;90.74512;95454.13;;;;
2020/11/29 00:48:48;;;;;;;33.25;15.55;;;;;;;0.92;90.74512;95454.13;;;;
2020/11/29 00:49:50;;;;;;;33.25;15.55;;;;;;;0.92;90.74512;95454.13;;;;
2020/11/29 00:50:50;;;;;;;33.25;15.55;;;;;;;0.92;90.74512;95454.13;;;;
2020/11/29 00:51:51;;;;;;;33.25;15.55;;;;;;;0.92;90.74512;95454.13;;;;
2020/11/29 00:52:51;;;;;;;33.25;15.55;;;;;;;0.92;90.74512;95454.13;;;;
2020/11/29 00:53:51;;;;;;;33.25;15.55;;;;;;;0.92;90.74512;95454.13;;;;
2020/11/29 00:54:52;;;;;;;33.25;15.55;;;;;;;0.92;90.74512;95454.13;;;;
2020/11/29 00:55:53;;;;;;;40.35;17.15;;;;;;;0.91;91.17969;95446.22;;;;
2020/11/29 00:56:53;;;;;;;40.35;17.15;;;;;;;0.91;91.17969;95446.22;;;;
2020/11/29 00:57:54;;;;;;;40.35;17.15;;;;;;;0.91;91.17969;95446.22;;;;
2020/11/29 00:58:56;;;;;;;40.35;17.15;;;;;;;0.91;91.17969;95446.22;;;;
2020/11/29 00:59:56;;;;;;;40.35;17.15;;;;;;;0.91;91.17969;95446.22;;;;
2020/11/29 01:00:57;;;;;;;40.35;17.15;;;;;;;0.91;91.17969;95446.22;;;;
2020/11/29 01:01:57;;;;;;;40.35;17.15;;;;;;;0.91;91.17969;95446.22;;;;
2020/11/29 01:02:58;;;;;;;40.35;17.15;;;;;;;0.91;91.17969;95446.22;;;;
2020/11/29 01:03:58;;;;;;;40.35;17.15;;;;;;;0.91;91.17969;95446.22;;;;
2020/11/29 01:04:59;;;;;;;40.35;17.15;;;;;;;0.91;91.17969;95446.22;;;;
2020/11/29 01:05:59;;;;;;;40.35;17.15;;;;;;;0.91;91.17969;95446.22;;;;
2020/11/29 01:07:00;;;;;;;39.7;17.5;;;;;;;0.95;91.09668;95438.23;;;;
2020/11/29 01:08:00;;;;;;;39.7;17.5;;;;;;;0.95;91.09668;95438.23;;;;
2020/11/29 01:09:01;;;;;;;39.7;17.5;;;;;;;0.95;91.09668;95438.23;;;;
2020/11/29 01:10:02;;;;;;;39.7;17.5;;;;;;;0.95;91.09668;95438.23;;;;
2020/11/29 01:11:04;;;;;;;39.7;17.5;;;;;;;0.95;91.09668;95438.23;;;;
2020/11/29 01:12:04;;;;;;;39.7;17.5;;;;;;;0.95;91.09668;95438.23;;;;
2020/11/29 01:13:05;;;;;;;39.7;17.5;;;;;;;0.95;91.09668;95438.23;;;;
2020/11/29 01:14:05;;;;;;;39.7;17.5;;;;;;;0.95;91.09668;95438.23;;;;
2020/11/29 01:15:06;;;;;;;39.7;17.5;;;;;;;0.95;91.09668;95438.23;;;;
2020/11/29 01:16:07;;;;;;;39.7;17.5;;;;;;;0.95;91.09668;95438.23;;;;
2020/11/29 01:17:07;;;;;;;35.55;16.45;;;;;;;0.84;91.49902;95445.67;;;;
2020/11/29 01:18:08;;;;;;;35.55;16.45;;;;;;;0.84;91.49902;95445.67;;;;
2020/11/29 01:19:08;;;;;;;35.55;16.45;;;;;;;0.84;91.49902;95445.67;;;;
2020/11/29 01:20:08;;;;;;;35.55;16.45;;;;;;;0.84;91.49902;95445.67;;;;
2020/11/29 01:21:09;;;;;;;35.55;16.45;;;;;;;0.84;91.49902;95445.67;;;;
2020/11/29 01:22:10;;;;;;;35.55;16.45;;;;;;;0.84;91.49902;95445.67;;;;
2020/11/29 01:23:10;;;;;;;35.55;16.45;;;;;;;0.84;91.49902;95445.67;;;;
2020/11/29 01:24:11;;;;;;;35.55;16.45;;;;;;;0.84;91.49902;95445.67;;;;
2020/11/29 01:25:18;;;;;;;35.55;16.45;;;;;;;0.84;91.49902;95445.67;;;;
2020/11/29 01:26:19;;;;;;;35.55;16.45;;;;;;;0.84;91.49902;95445.67;;;;
2020/11/29 01:27:19;;;;;;;35.55;16.45;;;;;;;0.84;91.49902;95445.67;;;;
2020/11/29 01:28:20;;;;;;;33.95;15.4;;;;;;;0.84;91.88379;95459.45;;;;
2020/11/29 01:29:20;;;;;;;33.95;15.4;;;;;;;0.84;91.88379;95459.45;;;;
2020/11/29 01:30:21;;;;;;;33.95;15.4;;;;;;;0.84;91.88379;95459.45;;;;
2020/11/29 01:31:21;;;;;;;33.95;15.4;;;;;;;0.84;91.88379;95459.45;;;;
2020/11/29 01:32:22;;;;;;;33.95;15.4;;;;;;;0.84;91.88379;95459.45;;;;
2020/11/29 01:33:22;;;;;;;33.95;15.4;;;;;;;0.84;91.88379;95459.45;;;;
2020/11/29 01:34:23;;;;;;;33.95;15.4;;;;;;;0.84;91.88379;95459.45;;;;
2020/11/29 01:35:23;;;;;;;33.95;15.4;;;;;;;0.84;91.88379;95459.45;;;;
2020/11/29 01:36:24;;;;;;;33.95;15.4;;;;;;;0.84;91.88379;95459.45;;;;
2020/11/29 01:37:25;;;;;;;33.95;15.4;;;;;;;0.84;91.88379;95459.45;;;;
2020/11/29 01:38:25;;;;;;;42.95;18.45;;;;;;;0.78;91.82813;95461.88;;;;
2020/11/29 01:39:26;;;;;;;42.95;18.45;;;;;;;0.78;91.82813;95461.88;;;;
2020/11/29 01:40:26;;;;;;;42.95;18.45;;;;;;;0.78;91.82813;95461.88;;;;
2020/11/29 01:41:27;;;;;;;42.95;18.45;;;;;;;0.78;91.82813;95461.88;;;;
2020/11/29 01:42:28;;;;;;;42.95;18.45;;;;;;;0.78;91.82813;95461.88;;;;
2020/11/29 01:43:29;;;;;;;42.95;18.45;;;;;;;0.78;91.82813;95461.88;;;;
2020/11/29 01:44:32;;;;;;;42.95;18.45;;;;;;;0.78;91.82813;95461.88;;;;
2020/11/29 01:45:32;;;;;;;42.95;18.45;;;;;;;0.78;91.82813;95461.88;;;;
2020/11/29 01:46:33;;;;;;;42.95;18.45;;;;;;;0.78;91.82813;95461.88;;;;
2020/11/29 01:47:34;;;;;;;42.95;18.45;;;;;;;0.78;91.82813;95461.88;;;;
2020/11/29 01:48:35;;;;;;;42.95;18.45;;;;;;;0.78;91.82813;95461.88;;;;
2020/11/29 01:49:35;;;;;;;36;16.3;;;;;;;0.8;91.99023;95462.05;;;;
2020/11/29 01:50:36;;;;;;;36;16.3;;;;;;;0.8;91.99023;95462.05;;;;
2020/11/29 01:51:36;;;;;;;36;16.3;;;;;;;0.8;91.99023;95462.05;;;;
2020/11/29 01:52:37;;;;;;;36;16.3;;;;;;;0.8;91.99023;95462.05;;;;
2020/11/29 01:53:38;;;;;;;36;16.3;;;;;;;0.8;91.99023;95462.05;;;;
2020/11/29 01:54:39;;;;;;;36;16.3;;;;;;;0.8;91.99023;95462.05;;;;
2020/11/29 01:55:41;;;;;;;36;16.3;;;;;;;0.8;91.99023;95462.05;;;;
2020/11/29 01:56:42;;;;;;;36;16.3;;;;;;;0.8;91.99023;95462.05;;;;
2020/11/29 01:57:48;;;;;;;36;16.3;;;;;;;0.8;91.99023;95462.05;;;;
2020/11/29 01:58:49;;;;;;;36;16.3;;;;;;;0.8;91.99023;95462.05;;;;
2020/11/29 01:59:49;;;;;;;32.4;15.8;;;;;;;0.77;91.89941;95466.46;;;;
2020/11/29 02:00:51;;;;;;;32.4;15.8;;;;;;;0.77;91.89941;95466.46;;;;
2020/11/29 02:01:51;;;;;;;32.4;15.8;;;;;;;0.77;91.89941;95466.46;;;;
2020/11/29 02:02:52;;;;;;;32.4;15.8;;;;;;;0.77;91.89941;95466.46;;;;
2020/11/29 02:03:52;;;;;;;32.4;15.8;;;;;;;0.77;91.89941;95466.46;;;;
2020/11/29 02:04:53;;;;;;;32.4;15.8;;;;;;;0.77;91.89941;95466.46;;;;
2020/11/29 02:05:53;;;;;;;32.4;15.8;;;;;;;0.77;91.89941;95466.46;;;;
2020/11/29 02:06:54;;;;;;;32.4;15.8;;;;;;;0.77;91.89941;95466.46;;;;
2020/11/29 02:07:54;;;;;;;32.4;15.8;;;;;;;0.77;91.89941;95466.46;;;;
2020/11/29 02:08:55;;;;;;;32.4;15.8;;;;;;;0.77;91.89941;95466.46;;;;
2020/11/29 02:09:55;;;;;;;32.4;15.8;;;;;;;0.77;91.89941;95466.46;;;;
2020/11/29 02:10:57;;;;;;;34.65;17.05;;;;;;;0.8;92.11328;95471.84;;;;
2020/11/29 02:11:57;;;;;;;34.65;17.05;;;;;;;0.8;92.11328;95471.84;;;;
2020/11/29 02:12:58;;;;;;;34.65;17.05;;;;;;;0.8;92.11328;95471.84;;;;
2020/11/29 02:13:58;;;;;;;34.65;17.05;;;;;;;0.8;92.11328;95471.84;;;;
2020/11/29 02:14:59;;;;;;;34.65;17.05;;;;;;;0.8;92.11328;95471.84;;;;
2020/11/29 02:15:59;;;;;;;34.65;17.05;;;;;;;0.8;92.11328;95471.84;;;;
2020/11/29 02:17:03;;;;;;;34.65;17.05;;;;;;;0.8;92.11328;95471.84;;;;
2020/11/29 02:18:03;;;;;;;34.65;17.05;;;;;;;0.8;92.11328;95471.84;;;;
2020/11/29 02:19:06;;;;;;;34.65;17.05;;;;;;;0.8;92.11328;95471.84;;;;
2020/11/29 02:20:06;;;;;;;34.65;17.05;;;;;;;0.8;92.11328;95471.84;;;;
2020/11/29 02:21:08;;;;;;;32.4;15.8;;;;;;;0.78;91.79688;95460.55;;;;
2020/11/29 02:22:09;;;;;;;32.4;15.8;;;;;;;0.78;91.79688;95460.55;;;;
2020/11/29 02:23:09;;;;;;;32.4;15.8;;;;;;;0.78;91.79688;95460.55;;;;
2020/11/29 02:24:11;;;;;;;32.4;15.8;;;;;;;0.78;91.79688;95460.55;;;;
2020/11/29 02:25:12;;;;;;;32.4;15.8;;;;;;;0.78;91.79688;95460.55;;;;
2020/11/29 02:26:13;;;;;;;32.4;15.8;;;;;;;0.78;91.79688;95460.55;;;;
2020/11/29 02:27:13;;;;;;;32.4;15.8;;;;;;;0.78;91.79688;95460.55;;;;
2020/11/29 02:28:14;;;;;;;32.4;15.8;;;;;;;0.78;91.79688;95460.55;;;;
2020/11/29 02:29:14;;;;;;;32.4;15.8;;;;;;;0.78;91.79688;95460.55;;;;
2020/11/29 02:30:15;;;;;;;32.4;15.8;;;;;;;0.78;91.79688;95460.55;;;;
2020/11/29 02:31:17;;;;;;;32.4;15.8;;;;;;;0.78;91.79688;95460.55;;;;
2020/11/29 02:32:18;;;;;;;30.15001;15.2;;;;;;;0.77;91.72168;95450.51;;;;
2020/11/29 02:33:18;;;;;;;30.15001;15.2;;;;;;;0.77;91.72168;95450.51;;;;
2020/11/29 02:34:19;;;;;;;30.15001;15.2;;;;;;;0.77;91.72168;95450.51;;;;
2020/11/29 02:35:19;;;;;;;30.15001;15.2;;;;;;;0.77;91.72168;95450.51;;;;
2020/11/29 02:36:23;;;;;;;30.15001;15.2;;;;;;;0.77;91.72168;95450.51;;;;
2020/11/29 02:37:23;;;;;;;30.15001;15.2;;;;;;;0.77;91.72168;95450.51;;;;
2020/11/29 02:38:24;;;;;;;30.15001;15.2;;;;;;;0.77;91.72168;95450.51;;;;
2020/11/29 02:39:24;;;;;;;30.15001;15.2;;;;;;;0.77;91.72168;95450.51;;;;
2020/11/29 02:40:25;;;;;;;30.15001;15.2;;;;;;;0.77;91.72168;95450.51;;;;
2020/11/29 02:41:26;;;;;;;30.15001;15.2;;;;;;;0.77;91.72168;95450.51;;;;
2020/11/29 02:42:27;;;;;;;30.15001;15.2;;;;;;;0.77;91.72168;95450.51;;;;
2020/11/29 02:43:27;;;;;;;30.1;15.65;;;;;;;0.77;91.47461;95450.41;;;;
2020/11/29 02:44:28;;;;;;;30.1;15.65;;;;;;;0.77;91.47461;95450.41;;;;
2020/11/29 02:45:28;;;;;;;30.1;15.65;;;;;;;0.77;91.47461;95450.41;;;;
2020/11/29 02:46:28;;;;;;;30.1;15.65;;;;;;;0.77;91.47461;95450.41;;;;
2020/11/29 02:47:29;;;;;;;30.1;15.65;;;;;;;0.77;91.47461;95450.41;;;;
2020/11/29 02:48:30;;;;;;;30.1;15.65;;;;;;;0.77;91.47461;95450.41;;;;
2020/11/29 02:49:33;;;;;;;30.1;15.65;;;;;;;0.77;91.47461;95450.41;;;;
2020/11/29 02:50:34;;;;;;;30.1;15.65;;;;;;;0.77;91.47461;95450.41;;;;
2020/11/29 02:51:35;;;;;;;30.1;15.65;;;;;;;0.77;91.47461;95450.41;;;;
2020/11/29 02:52:38;;;;;;;30.1;15.65;;;;;;;0.77;91.47461;95450.41;;;;
2020/11/29 02:53:41;;;;;;;33.35001;15.1;;;;;;;0.78;91.3291;95448.6;;;;
2020/11/29 02:54:42;;;;;;;33.35001;15.1;;;;;;;0.78;91.3291;95448.6;;;;
2020/11/29 02:55:42;;;;;;;33.35001;15.1;;;;;;;0.78;91.3291;95448.6;;;;
2020/11/29 02:56:43;;;;;;;33.35001;15.1;;;;;;;0.78;91.3291;95448.6;;;;
2020/11/29 02:57:43;;;;;;;33.35001;15.1;;;;;;;0.78;91.3291;95448.6;;;;
2020/11/29 02:58:44;;;;;;;33.35001;15.1;;;;;;;0.78;91.3291;95448.6;;;;
2020/11/29 02:59:44;;;;;;;33.35001;15.1;;;;;;;0.78;91.3291;95448.6;;;;
2020/11/29 03:00:45;;;;;;;33.35001;15.1;;;;;;;0.78;91.3291;95448.6;;;;
2020/11/29 03:01:45;;;;;;;33.35001;15.1;;;;;;;0.78;91.3291;95448.6;;;;
2020/11/29 03:02:46;;;;;;;33.35001;15.1;;;;;;;0.78;91.3291;95448.6;;;;
2020/11/29 03:03:47;;;;;;;33.35001;15.1;;;;;;;0.78;91.3291;95448.6;;;;
2020/11/29 03:04:47;;;;;;;30.75;15.4;;;;;;;0.82;91.21191;95450.82;;;;
2020/11/29 03:05:48;;;;;;;30.75;15.4;;;;;;;0.82;91.21191;95450.82;;;;
2020/11/29 03:06:48;;;;;;;30.75;15.4;;;;;;;0.82;91.21191;95450.82;;;;
2020/11/29 03:07:49;;;;;;;30.75;15.4;;;;;;;0.82;91.21191;95450.82;;;;
2020/11/29 03:08:49;;;;;;;30.75;15.4;;;;;;;0.82;91.21191;95450.82;;;;
2020/11/29 03:09:50;;;;;;;30.75;15.4;;;;;;;0.82;91.21191;95450.82;;;;
2020/11/29 03:10:50;;;;;;;30.75;15.4;;;;;;;0.82;91.21191;95450.82;;;;
2020/11/29 03:11:51;;;;;;;30.75;15.4;;;;;;;0.82;91.21191;95450.82;;;;
2020/11/29 03:12:51;;;;;;;30.75;15.4;;;;;;;0.82;91.21191;95450.82;;;;
2020/11/29 03:13:51;;;;;;;30.75;15.4;;;;;;;0.82;91.21191;95450.82;;;;
2020/11/29 03:14:52;;;;;;;28.4;14.6;;;;;;;0.76;90.79395;95449.27;;;;
2020/11/29 03:15:53;;;;;;;28.4;14.6;;;;;;;0.76;90.79395;95449.27;;;;
2020/11/29 03:16:53;;;;;;;28.4;14.6;;;;;;;0.76;90.79395;95449.27;;;;
2020/11/29 03:17:54;;;;;;;28.4;14.6;;;;;;;0.76;90.79395;95449.27;;;;
2020/11/29 03:18:54;;;;;;;28.4;14.6;;;;;;;0.76;90.79395;95449.27;;;;
2020/11/29 03:19:56;;;;;;;28.4;14.6;;;;;;;0.76;90.79395;95449.27;;;;
2020/11/29 03:20:56;;;;;;;28.4;14.6;;;;;;;0.76;90.79395;95449.27;;;;
2020/11/29 03:21:57;;;;;;;28.4;14.6;;;;;;;0.76;90.79395;95449.27;;;;
2020/11/29 03:22:57;;;;;;;28.4;14.6;;;;;;;0.76;90.79395;95449.27;;;;
2020/11/29 03:24:00;;;;;;;28.4;14.6;;;;;;;0.76;90.79395;95449.27;;;;
2020/11/29 03:25:00;;;;;;;28.4;14.6;;;;;;;0.76;90.79395;95449.27;;;;
2020/11/29 03:26:01;;;;;;;29.2;15.15;;;;;;;0.72;90.77539;95454.61;;;;
2020/11/29 03:27:01;;;;;;;29.2;15.15;;;;;;;0.72;90.77539;95454.61;;;;
2020/11/29 03:28:02;;;;;;;29.2;15.15;;;;;;;0.72;90.77539;95454.61;;;;
2020/11/29 03:29:02;;;;;;;29.2;15.15;;;;;;;0.72;90.77539;95454.61;;;;
2020/11/29 03:30:03;;;;;;;29.2;15.15;;;;;;;0.72;90.77539;95454.61;;;;
2020/11/29 03:31:03;;;;;;;29.2;15.15;;;;;;;0.72;90.77539;95454.61;;;;
2020/11/29 03:32:07;;;;;;;29.2;15.15;;;;;;;0.72;90.77539;95454.61;;;;
2020/11/29 03:33:07;;;;;;;29.2;15.15;;;;;;;0.72;90.77539;95454.61;;;;
2020/11/29 03:34:08;;;;;;;29.2;15.15;;;;;;;0.72;90.77539;95454.61;;;;
2020/11/29 03:35:08;;;;;;;29.2;15.15;;;;;;;0.72;90.77539;95454.61;;;;
2020/11/29 03:36:09;;;;;;;26.7;14.4;;;;;;;0.68;90.61133;95444;;;;
2020/11/29 03:37:09;;;;;;;26.7;14.4;;;;;;;0.68;90.61133;95444;;;;
2020/11/29 03:38:10;;;;;;;26.7;14.4;;;;;;;0.68;90.61133;95444;;;;
2020/11/29 03:39:10;;;;;;;26.7;14.4;;;;;;;0.68;90.61133;95444;;;;
2020/11/29 03:40:11;;;;;;;26.7;14.4;;;;;;;0.68;90.61133;95444;;;;
2020/11/29 03:41:11;;;;;;;26.7;14.4;;;;;;;0.68;90.61133;95444;;;;
2020/11/29 03:42:12;;;;;;;26.7;14.4;;;;;;;0.68;90.61133;95444;;;;
2020/11/29 03:43:12;;;;;;;26.7;14.4;;;;;;;0.68;90.61133;95444;;;;
2020/11/29 03:44:13;;;;;;;26.7;14.4;;;;;;;0.68;90.61133;95444;;;;
2020/11/29 03:45:13;;;;;;;26.7;14.4;;;;;;;0.68;90.61133;95444;;;;
2020/11/29 03:46:14;;;;;;;26.7;14.4;;;;;;;0.68;90.61133;95444;;;;
2020/11/29 03:47:14;;;;;;;29.7;13.65;;;;;;;0.66;90.43945;95440.68;;;;
2020/11/29 03:48:15;;;;;;;29.7;13.65;;;;;;;0.66;90.43945;95440.68;;;;
2020/11/29 03:49:15;;;;;;;29.7;13.65;;;;;;;0.66;90.43945;95440.68;;;;
2020/11/29 03:50:16;;;;;;;29.7;13.65;;;;;;;0.66;90.43945;95440.68;;;;
2020/11/29 03:51:16;;;;;;;29.7;13.65;;;;;;;0.66;90.43945;95440.68;;;;
2020/11/29 03:52:17;;;;;;;29.7;13.65;;;;;;;0.66;90.43945;95440.68;;;;
2020/11/29 03:53:17;;;;;;;29.7;13.65;;;;;;;0.66;90.43945;95440.68;;;;
2020/11/29 03:54:18;;;;;;;29.7;13.65;;;;;;;0.66;90.43945;95440.68;;;;
2020/11/29 03:55:19;;;;;;;29.7;13.65;;;;;;;0.66;90.43945;95440.68;;;;
2020/11/29 03:56:19;;;;;;;29.7;13.65;;;;;;;0.66;90.43945;95440.68;;;;
2020/11/29 03:57:20;;;;;;;23.4;11.5;;;;;;;0.63;90.35156;95439.7;;;;
2020/11/29 03:58:20;;;;;;;23.4;11.5;;;;;;;0.63;90.35156;95439.7;;;;
2020/11/29 03:59:21;;;;;;;23.4;11.5;;;;;;;0.63;90.35156;95439.7;;;;
2020/11/29 04:00:21;;;;;;;23.4;11.5;;;;;;;0.63;90.35156;95439.7;;;;
2020/11/29 04:01:22;;;;;;;23.4;11.5;;;;;;;0.63;90.35156;95439.7;;;;
2020/11/29 04:02:22;;;;;;;23.4;11.5;;;;;;;0.63;90.35156;95439.7;;;;
2020/11/29 04:03:25;;;;;;;23.4;11.5;;;;;;;0.63;90.35156;95439.7;;;;
2020/11/29 04:04:25;;;;;;;23.4;11.5;;;;;;;0.63;90.35156;95439.7;;;;
2020/11/29 04:05:26;;;;;;;23.4;11.5;;;;;;;0.63;90.35156;95439.7;;;;
2020/11/29 04:06:27;;;;;;;23.4;11.5;;;;;;;0.63;90.35156;95439.7;;;;
2020/11/29 04:07:27;;;;;;;23.4;11.5;;;;;;;0.63;90.35156;95439.7;;;;
2020/11/29 04:08:28;;;;;;;25.8;13.85;;;;;;;0.61;90.20215;95446.1;;;;
2020/11/29 04:09:29;;;;;;;25.8;13.85;;;;;;;0.61;90.20215;95446.1;;;;
2020/11/29 04:10:29;;;;;;;25.8;13.85;;;;;;;0.61;90.20215;95446.1;;;;
2020/11/29 04:11:30;;;;;;;25.8;13.85;;;;;;;0.61;90.20215;95446.1;;;;
2020/11/29 04:12:30;;;;;;;25.8;13.85;;;;;;;0.61;90.20215;95446.1;;;;
2020/11/29 04:13:31;;;;;;;25.8;13.85;;;;;;;0.61;90.20215;95446.1;;;;
2020/11/29 04:14:31;;;;;;;25.8;13.85;;;;;;;0.61;90.20215;95446.1;;;;
2020/11/29 04:15:32;;;;;;;25.8;13.85;;;;;;;0.61;90.20215;95446.1;;;;
2020/11/29 04:16:32;;;;;;;25.8;13.85;;;;;;;0.61;90.20215;95446.1;;;;
2020/11/29 04:17:33;;;;;;;25.8;13.85;;;;;;;0.61;90.20215;95446.1;;;;
2020/11/29 04:18:34;;;;;;;26.1;13.55;;;;;;;0.69;90.0625;95449.63;;;;
2020/11/29 04:19:34;;;;;;;26.1;13.55;;;;;;;0.69;90.0625;95449.63;;;;
2020/11/29 04:20:35;;;;;;;26.1;13.55;;;;;;;0.69;90.0625;95449.63;;;;
2020/11/29 04:21:35;;;;;;;26.1;13.55;;;;;;;0.69;90.0625;95449.63;;;;
2020/11/29 04:22:36;;;;;;;26.1;13.55;;;;;;;0.69;90.0625;95449.63;;;;
2020/11/29 04:23:36;;;;;;;26.1;13.55;;;;;;;0.69;90.0625;95449.63;;;;
2020/11/29 04:24:37;;;;;;;26.1;13.55;;;;;;;0.69;90.0625;95449.63;;;;
2020/11/29 04:25:37;;;;;;;26.1;13.55;;;;;;;0.69;90.0625;95449.63;;;;
2020/11/29 04:26:38;;;;;;;26.1;13.55;;;;;;;0.69;90.0625;95449.63;;;;
2020/11/29 04:27:38;;;;;;;26.1;13.55;;;;;;;0.69;90.0625;95449.63;;;;
2020/11/29 04:28:39;;;;;;;26.1;13.55;;;;;;;0.69;90.0625;95449.63;;;;
2020/11/29 04:29:39;;;;;;;30.45;14.95;;;;;;;0.65;89.67969;95452.7;;;;
2020/11/29 04:30:40;;;;;;;30.45;14.95;;;;;;;0.65;89.67969;95452.7;;;;
2020/11/29 04:31:41;;;;;;;30.45;14.95;;;;;;;0.65;89.67969;95452.7;;;;
2020/11/29 04:32:41;;;;;;;30.45;14.95;;;;;;;0.65;89.67969;95452.7;;;;
2020/11/29 04:33:42;;;;;;;30.45;14.95;;;;;;;0.65;89.67969;95452.7;;;;
2020/11/29 04:34:42;;;;;;;30.45;14.95;;;;;;;0.65;89.67969;95452.7;;;;
2020/11/29 04:35:42;;;;;;;30.45;14.95;;;;;;;0.65;89.67969;95452.7;;;;
2020/11/29 04:36:43;;;;;;;30.45;14.95;;;;;;;0.65;89.67969;95452.7;;;;
2020/11/29 04:37:43;;;;;;;30.45;14.95;;;;;;;0.65;89.67969;95452.7;;;;
2020/11/29 04:38:44;;;;;;;30.45;14.95;;;;;;;0.65;89.67969;95452.7;;;;
2020/11/29 04:39:44;;;;;;;30.45;14.95;;;;;;;0.65;89.67969;95452.7;;;;
2020/11/29 04:40:45;;;;;;;30.45;15.15;;;;;;;0.65;89.7002;95456.27;;;;
2020/11/29 04:41:46;;;;;;;30.45;15.15;;;;;;;0.65;89.7002;95456.27;;;;
2020/11/29 04:42:46;;;;;;;30.45;15.15;;;;;;;0.65;89.7002;95456.27;;;;
2020/11/29 04:43:47;;;;;;;30.45;15.15;;;;;;;0.65;89.7002;95456.27;;;;
2020/11/29 04:44:49;;;;;;;30.45;15.15;;;;;;;0.65;89.7002;95456.27;;;;
2020/11/29 04:45:51;;;;;;;30.45;15.15;;;;;;;0.65;89.7002;95456.27;;;;
2020/11/29 04:46:52;;;;;;;30.45;15.15;;;;;;;0.65;89.7002;95456.27;;;;
2020/11/29 04:47:53;;;;;;;30.45;15.15;;;;;;;0.65;89.7002;95456.27;;;;
2020/11/29 04:48:55;;;;;;;30.45;15.15;;;;;;;0.65;89.7002;95456.27;;;;
2020/11/29 04:49:56;;;;;;;30.45;15.15;;;;;;;0.65;89.7002;95456.27;;;;
2020/11/29 04:50:57;;;;;;;28.05;14.95;;;;;;;0.59;89.48828;95456.48;;;;
2020/11/29 04:51:59;;;;;;;28.05;14.95;;;;;;;0.59;89.48828;95456.48;;;;
2020/11/29 04:53:04;;;;;;;28.05;14.95;;;;;;;0.59;89.48828;95456.48;;;;
2020/11/29 04:54:07;;;;;;;28.05;14.95;;;;;;;0.59;89.48828;95456.48;;;;
2020/11/29 04:55:12;;;;;;;28.05;14.95;;;;;;;0.59;89.48828;95456.48;;;;
2020/11/29 04:56:18;;;;;;;28.05;14.95;;;;;;;0.59;89.48828;95456.48;;;;
2020/11/29 04:57:18;;;;;;;28.05;14.95;;;;;;;0.59;89.48828;95456.48;;;;
2020/11/29 04:58:19;;;;;;;28.05;14.95;;;;;;;0.59;89.48828;95456.48;;;;
2020/11/29 04:59:19;;;;;;;28.05;14.95;;;;;;;0.59;89.48828;95456.48;;;;
2020/11/29 05:00:19;;;;;;;28.05;14.95;;;;;;;0.59;89.48828;95456.48;;;;
2020/11/29 05:01:20;;;;;;;29.65;14.9;;;;;;;0.53;89.51855;95469.11;;;;
2020/11/29 05:02:20;;;;;;;29.65;14.9;;;;;;;0.53;89.51855;95469.11;;;;
2020/11/29 05:03:21;;;;;;;29.65;14.9;;;;;;;0.53;89.51855;95469.11;;;;
2020/11/29 05:04:21;;;;;;;29.65;14.9;;;;;;;0.53;89.51855;95469.11;;;;
2020/11/29 05:05:22;;;;;;;29.65;14.9;;;;;;;0.53;89.51855;95469.11;;;;
2020/11/29 05:06:23;;;;;;;29.65;14.9;;;;;;;0.53;89.51855;95469.11;;;;
2020/11/29 05:07:24;;;;;;;29.65;14.9;;;;;;;0.53;89.51855;95469.11;;;;
2020/11/29 05:08:25;;;;;;;29.65;14.9;;;;;;;0.53;89.51855;95469.11;;;;
2020/11/29 05:09:27;;;;;;;29.65;14.9;;;;;;;0.53;89.51855;95469.11;;;;
2020/11/29 05:10:27;;;;;;;29.65;14.9;;;;;;;0.53;89.51855;95469.11;;;;
2020/11/29 05:11:28;;;;;;;29.65;14.9;;;;;;;0.53;89.51855;95469.11;;;;
2020/11/29 05:12:29;;;;;;;33.5;15.9;;;;;;;0.47;89.48633;95471.62;;;;
2020/11/29 05:13:30;;;;;;;33.5;15.9;;;;;;;0.47;89.48633;95471.62;;;;
2020/11/29 05:14:32;;;;;;;33.5;15.9;;;;;;;0.47;89.48633;95471.62;;;;
2020/11/29 05:15:32;;;;;;;33.5;15.9;;;;;;;0.47;89.48633;95471.62;;;;
2020/11/29 05:16:33;;;;;;;33.5;15.9;;;;;;;0.47;89.48633;95471.62;;;;
2020/11/29 05:17:34;;;;;;;33.5;15.9;;;;;;;0.47;89.48633;95471.62;;;;
2020/11/29 05:18:35;;;;;;;33.5;15.9;;;;;;;0.47;89.48633;95471.62;;;;
2020/11/29 05:19:36;;;;;;;33.5;15.9;;;;;;;0.47;89.48633;95471.62;;;;
2020/11/29 05:20:45;;;;;;;33.5;15.9;;;;;;;0.47;89.48633;95471.62;;;;
2020/11/29 05:21:46;;;;;;;33.5;15.9;;;;;;;0.47;89.48633;95471.62;;;;
2020/11/29 05:22:47;;;;;;;33.3;16.3;;;;;;;0.45;89.44043;95482.01;;;;
2020/11/29 05:24:04;;;;;;;33.3;16.3;;;;;;;0.45;89.44043;95482.01;;;;
2020/11/29 05:25:06;;;;;;;33.3;16.3;;;;;;;0.45;89.44043;95482.01;;;;
2020/11/29 05:26:08;;;;;;;33.3;16.3;;;;;;;0.45;89.44043;95482.01;;;;
2020/11/29 05:27:11;;;;;;;33.3;16.3;;;;;;;0.45;89.44043;95482.01;;;;
2020/11/29 05:28:20;;;;;;;33.3;16.3;;;;;;;0.45;89.44043;95482.01;;;;
2020/11/29 05:29:23;;;;;;;33.3;16.3;;;;;;;0.45;89.44043;95482.01;;;;
2020/11/29 05:30:25;;;;;;;33.3;16.3;;;;;;;0.45;89.44043;95482.01;;;;
2020/11/29 05:31:28;;;;;;;33.3;16.3;;;;;;;0.45;89.44043;95482.01;;;;
2020/11/29 05:32:28;;;;;;;33.3;16.3;;;;;;;0.45;89.44043;95482.01;;;;
2020/11/29 05:33:37;;;;;;;35.5;16.8;;;;;;;0.43;89.26758;95491.55;;;;
2020/11/29 05:34:37;;;;;;;35.5;16.8;;;;;;;0.43;89.26758;95491.55;;;;
2020/11/29 05:35:38;;;;;;;35.5;16.8;;;;;;;0.43;89.26758;95491.55;;;;
2020/11/29 05:36:38;;;;;;;35.5;16.8;;;;;;;0.43;89.26758;95491.55;;;;
2020/11/29 05:37:49;;;;;;;35.5;16.8;;;;;;;0.43;89.26758;95491.55;;;;
2020/11/29 05:39:08;;;;;;;35.5;16.8;;;;;;;0.43;89.26758;95491.55;;;;
2020/11/29 05:40:11;;;;;;;35.5;16.8;;;;;;;0.43;89.26758;95491.55;;;;
2020/11/29 05:41:12;;;;;;;35.5;16.8;;;;;;;0.43;89.26758;95491.55;;;;
2020/11/29 05:42:12;;;;;;;35.5;16.8;;;;;;;0.43;89.26758;95491.55;;;;
2020/11/29 05:43:14;;;;;;;35.5;16.8;;;;;;;0.43;89.26758;95491.55;;;;
2020/11/29 05:44:15;;;;;;;35.49999;17.45;;;;;;;0.39;89.14551;95495.53;;;;
2020/11/29 05:45:16;;;;;;;35.49999;17.45;;;;;;;0.39;89.14551;95495.53;;;;
2020/11/29 05:46:16;;;;;;;35.49999;17.45;;;;;;;0.39;89.14551;95495.53;;;;